sensor_id;sensor_type;location;lat;lon;timestamp;temperature;humidity
66831;DHT22;53739;44.224;22.528;2023-06-14T00:00:37;384.20;2329.60
66831;DHT22;53739;44.224;22.528;2023-06-14T00:03:09;384.20;2329.60
66831;DHT22;53739;44.224;22.528;2023-06-14T00:05:37;384.10;2329.60
66831;DHT22;53739;44.224;22.528;2023-06-14T00:08:11;384.10;2329.60
66831;DHT22;53739;44.224;22.528;2023-06-14T00:10:37;384.10;2329.60
66831;DHT22;53739;44.224;22.528;2023-06-14T00:13:04;384.00;2329.60
66831;DHT22;53739;44.224;22.528;2023-06-14T00:15:33;384.00;2329.60
66831;DHT22;53739;44.224;22.528;2023-06-14T00:17:59;384.00;2329.60
66831;DHT22;53739;44.224;22.528;2023-06-14T00:20:29;384.00;2329.60
66831;DHT22;53739;44.224;22.528;2023-06-14T00:22:56;384.00;2329.60
66831;DHT22;53739;44.224;22.528;2023-06-14T00:25:23;359.30;2329.60
66831;DHT22;53739;44.224;22.528;2023-06-14T00:27:51;359.30;2329.60
66831;DHT22;53739;44.224;22.528;2023-06-14T00:30:17;359.30;2329.60
66831;DHT22;53739;44.224;22.528;2023-06-14T00:32:44;359.30;2329.60
66831;DHT22;53739;44.224;22.528;2023-06-14T00:35:11;359.30;2329.60
66831;DHT22;53739;44.224;22.528;2023-06-14T00:37:37;359.30;2329.60
66831;DHT22;53739;44.224;22.528;2023-06-14T00:40:04;359.30;2329.60
66831;DHT22;53739;44.224;22.528;2023-06-14T00:42:30;359.30;2329.60
66831;DHT22;53739;44.224;22.528;2023-06-14T00:44:56;359.20;2329.60
66831;DHT22;53739;44.224;22.528;2023-06-14T00:47:23;359.20;2329.60
66831;DHT22;53739;44.224;22.528;2023-06-14T00:49:53;359.20;2329.60
66831;DHT22;53739;44.224;22.528;2023-06-14T00:52:20;359.20;2329.60
66831;DHT22;53739;44.224;22.528;2023-06-14T00:54:46;359.20;2329.60
66831;DHT22;53739;44.224;22.528;2023-06-14T00:57:13;359.20;2329.60
66831;DHT22;53739;44.224;22.528;2023-06-14T00:59:44;359.20;2329.60
66831;DHT22;53739;44.224;22.528;2023-06-14T01:02:10;359.20;2329.60
66831;DHT22;53739;44.224;22.528;2023-06-14T01:04:38;359.20;2329.60
66831;DHT22;53739;44.224;22.528;2023-06-14T01:07:31;359.20;2329.60
66831;DHT22;53739;44.224;22.528;2023-06-14T01:10:09;359.10;2329.60
66831;DHT22;53739;44.224;22.528;2023-06-14T01:12:55;359.10;2329.60
66831;DHT22;53739;44.224;22.528;2023-06-14T01:15:23;359.10;2329.60
66831;DHT22;53739;44.224;22.528;2023-06-14T01:17:50;359.10;2329.60
66831;DHT22;53739;44.224;22.528;2023-06-14T01:20:20;359.10;2329.60
66831;DHT22;53739;44.224;22.528;2023-06-14T01:22:53;359.10;2329.60
66831;DHT22;53739;44.224;22.528;2023-06-14T01:25:20;359.10;2329.60
66831;DHT22;53739;44.224;22.528;2023-06-14T01:28:07;359.00;2329.60
66831;DHT22;53739;44.224;22.528;2023-06-14T01:30:40;359.10;2329.60
66831;DHT22;53739;44.224;22.528;2023-06-14T01:33:15;358.90;2329.60
66831;DHT22;53739;44.224;22.528;2023-06-14T01:35:43;359.00;2329.60
66831;DHT22;53739;44.224;22.528;2023-06-14T01:38:09;359.00;2329.60
66831;DHT22;53739;44.224;22.528;2023-06-14T01:40:35;359.00;2329.60
66831;DHT22;53739;44.224;22.528;2023-06-14T01:43:03;359.00;2329.60
66831;DHT22;53739;44.224;22.528;2023-06-14T01:45:30;359.00;2329.60
66831;DHT22;53739;44.224;22.528;2023-06-14T01:47:56;359.00;2329.60
66831;DHT22;53739;44.224;22.528;2023-06-14T01:50:22;359.00;2329.60
66831;DHT22;53739;44.224;22.528;2023-06-14T01:52:48;358.90;2329.60
66831;DHT22;53739;44.224;22.528;2023-06-14T01:55:13;358.80;2329.60
66831;DHT22;53739;44.224;22.528;2023-06-14T01:57:39;358.80;2329.60
66831;DHT22;53739;44.224;22.528;2023-06-14T02:00:06;358.80;2329.60
66831;DHT22;53739;44.224;22.528;2023-06-14T02:02:33;358.80;2329.60
66831;DHT22;53739;44.224;22.528;2023-06-14T02:04:59;358.80;2329.60
66831;DHT22;53739;44.224;22.528;2023-06-14T02:07:25;358.90;2329.60
66831;DHT22;53739;44.224;22.528;2023-06-14T02:09:52;358.70;2329.60
66831;DHT22;53739;44.224;22.528;2023-06-14T02:12:18;358.80;2329.60
66831;DHT22;53739;44.224;22.528;2023-06-14T02:19:36;358.70;2329.60
66831;DHT22;53739;44.224;22.528;2023-06-14T02:22:02;358.70;2329.60
66831;DHT22;53739;44.224;22.528;2023-06-14T02:24:27;358.70;2329.60
66831;DHT22;53739;44.224;22.528;2023-06-14T02:26:53;358.70;2329.60
66831;DHT22;53739;44.224;22.528;2023-06-14T02:29:19;358.50;2329.60
66831;DHT22;53739;44.224;22.528;2023-06-14T02:31:45;358.60;2329.60
66831;DHT22;53739;44.224;22.528;2023-06-14T02:34:14;358.60;2329.60
66831;DHT22;53739;44.224;22.528;2023-06-14T02:36:42;358.70;2329.60
66831;DHT22;53739;44.224;22.528;2023-06-14T02:39:11;358.60;2329.60
66831;DHT22;53739;44.224;22.528;2023-06-14T02:41:37;358.60;2329.60
66831;DHT22;53739;44.224;22.528;2023-06-14T02:44:03;358.60;2329.60
66831;DHT22;53739;44.224;22.528;2023-06-14T02:46:29;358.60;2329.60
66831;DHT22;53739;44.224;22.528;2023-06-14T16:07:11;358.50;2329.60
66831;DHT22;53739;44.224;22.528;2023-06-14T16:09:39;614.50;128.00
66831;DHT22;53739;44.224;22.528;2023-06-14T16:12:06;614.60;128.00
66831;DHT22;53739;44.224;22.528;2023-06-14T16:14:32;614.60;128.00
66831;DHT22;53739;44.224;22.528;2023-06-14T16:16:58;614.70;128.00
66831;DHT22;53739;44.224;22.528;2023-06-14T16:19:23;614.70;128.00
66831;DHT22;53739;44.224;22.528;2023-06-14T16:21:49;614.60;128.00
66831;DHT22;53739;44.224;22.528;2023-06-14T16:24:15;614.60;128.00
66831;DHT22;53739;44.224;22.528;2023-06-14T16:26:41;614.60;128.00
66831;DHT22;53739;44.224;22.528;2023-06-14T16:29:08;614.50;128.00
66831;DHT22;53739;44.224;22.528;2023-06-14T16:31:33;614.50;128.00
66831;DHT22;53739;44.224;22.528;2023-06-14T16:33:59;614.50;128.00
66831;DHT22;53739;44.224;22.528;2023-06-14T16:36:25;614.40;128.00
66831;DHT22;53739;44.224;22.528;2023-06-14T16:38:51;589.70;230.40
66831;DHT22;53739;44.224;22.528;2023-06-14T16:41:17;589.70;128.00
66831;DHT22;53739;44.224;22.528;2023-06-14T16:43:43;589.60;128.00
66831;DHT22;53739;44.224;22.528;2023-06-14T16:46:09;589.60;128.00
66831;DHT22;53739;44.224;22.528;2023-06-14T16:48:35;589.50;128.00
66831;DHT22;53739;44.224;22.528;2023-06-14T16:51:01;589.50;230.40
66831;DHT22;53739;44.224;22.528;2023-06-14T16:53:30;589.50;128.00
66831;DHT22;53739;44.224;22.528;2023-06-14T16:55:56;589.40;128.00
66831;DHT22;53739;44.224;22.528;2023-06-14T16:58:22;589.40;128.00
66831;DHT22;53739;44.224;22.528;2023-06-14T17:00:47;589.40;2432.00
66831;DHT22;53739;44.224;22.528;2023-06-14T17:03:13;589.50;1843.20
66831;DHT22;53739;44.224;22.528;2023-06-14T17:05:52;589.40;2432.00
66831;DHT22;53739;44.224;22.528;2023-06-14T17:08:18;589.40;2432.00
66831;DHT22;53739;44.224;22.528;2023-06-14T17:10:44;589.30;128.00
66831;DHT22;53739;44.224;22.528;2023-06-14T17:13:10;589.20;2432.00
66831;DHT22;53739;44.224;22.528;2023-06-14T17:15:36;589.20;2432.00
66831;DHT22;53739;44.224;22.528;2023-06-14T17:18:02;589.20;128.00
66831;DHT22;53739;44.224;22.528;2023-06-14T17:20:28;589.20;128.00
66831;DHT22;53739;44.224;22.528;2023-06-14T17:22:53;589.10;2432.00
66831;DHT22;53739;44.224;22.528;2023-06-14T17:25:19;589.00;2432.00
66831;DHT22;53739;44.224;22.528;2023-06-14T17:27:45;589.00;128.00
66831;DHT22;53739;44.224;22.528;2023-06-14T17:30:12;588.90;2432.00
66831;DHT22;53739;44.224;22.528;2023-06-14T17:32:39;588.90;768.00
66831;DHT22;53739;44.224;22.528;2023-06-14T17:35:06;588.80;128.00
66831;DHT22;53739;44.224;22.528;2023-06-14T17:37:32;588.80;128.00
66831;DHT22;53739;44.224;22.528;2023-06-14T17:39:57;588.80;128.00
66831;DHT22;53739;44.224;22.528;2023-06-14T17:42:23;588.80;486.40
66831;DHT22;53739;44.224;22.528;2023-06-14T17:44:49;588.80;128.00
66831;DHT22;53739;44.224;22.528;2023-06-14T17:47:16;588.80;128.00
66831;DHT22;53739;44.224;22.528;2023-06-14T17:49:43;588.80;128.00
66831;DHT22;53739;44.224;22.528;2023-06-14T17:52:08;564.10;819.20
66831;DHT22;53739;44.224;22.528;2023-06-14T17:54:34;564.10;128.00
66831;DHT22;53739;44.224;22.528;2023-06-14T17:57:00;564.00;2432.00
66831;DHT22;53739;44.224;22.528;2023-06-14T17:59:26;564.00;2432.00
66831;DHT22;53739;44.224;22.528;2023-06-14T18:01:51;564.00;2432.00
66831;DHT22;53739;44.224;22.528;2023-06-14T18:04:17;564.00;2432.00
66831;DHT22;53739;44.224;22.528;2023-06-14T18:06:43;564.00;1254.40
66831;DHT22;53739;44.224;22.528;2023-06-14T18:09:12;564.00;128.00
66831;DHT22;53739;44.224;22.528;2023-06-14T18:11:40;564.00;2432.00
66831;DHT22;53739;44.224;22.528;2023-06-14T18:14:06;563.90;2432.00
66831;DHT22;53739;44.224;22.528;2023-06-14T18:16:31;563.90;512.00
66831;DHT22;53739;44.224;22.528;2023-06-14T18:18:57;563.80;256.00
66831;DHT22;53739;44.224;22.528;2023-06-14T18:21:23;563.80;1075.20
66831;DHT22;53739;44.224;22.528;2023-06-14T18:23:58;563.80;1228.80
66831;DHT22;53739;44.224;22.528;2023-06-14T18:26:25;563.70;409.60
66831;DHT22;53739;44.224;22.528;2023-06-14T18:28:54;563.60;2432.00
66831;DHT22;53739;44.224;22.528;2023-06-14T18:31:20;563.60;2432.00
66831;DHT22;53739;44.224;22.528;2023-06-14T18:33:46;563.50;2432.00
66831;DHT22;53739;44.224;22.528;2023-06-14T18:36:12;563.50;2150.40
66831;DHT22;53739;44.224;22.528;2023-06-14T18:38:37;563.50;2432.00
66831;DHT22;53739;44.224;22.528;2023-06-14T18:41:03;563.50;2380.80
66831;DHT22;53739;44.224;22.528;2023-06-14T18:43:29;563.50;2432.00
66831;DHT22;53739;44.224;22.528;2023-06-14T18:45:58;563.50;2432.00
66831;DHT22;53739;44.224;22.528;2023-06-14T18:48:25;563.50;2432.00
66831;DHT22;53739;44.224;22.528;2023-06-14T18:50:50;563.40;2432.00
66831;DHT22;53739;44.224;22.528;2023-06-14T18:53:18;563.40;2432.00
66831;DHT22;53739;44.224;22.528;2023-06-14T18:55:43;563.40;2432.00
66831;DHT22;53739;44.224;22.528;2023-06-14T18:58:10;563.40;2432.00
66831;DHT22;53739;44.224;22.528;2023-06-14T19:00:36;563.30;2432.00
66831;DHT22;53739;44.224;22.528;2023-06-14T19:03:02;563.30;2432.00
66831;DHT22;53739;44.224;22.528;2023-06-14T19:05:29;563.20;2432.00
66831;DHT22;53739;44.224;22.528;2023-06-14T19:07:55;563.20;2432.00
66831;DHT22;53739;44.224;22.528;2023-06-14T19:10:21;538.50;2406.40
66831;DHT22;53739;44.224;22.528;2023-06-14T19:12:48;538.50;2406.40
66831;DHT22;53739;44.224;22.528;2023-06-14T19:15:14;538.50;2406.40
66831;DHT22;53739;44.224;22.528;2023-06-14T19:17:40;538.50;2406.40
66831;DHT22;53739;44.224;22.528;2023-06-14T19:20:07;538.50;2406.40
66831;DHT22;53739;44.224;22.528;2023-06-14T19:22:33;538.50;2406.40
66831;DHT22;53739;44.224;22.528;2023-06-14T19:24:59;538.40;2406.40
